Terminal Aerodrome Forecast
Issued by NWS Cleveland, OH

Home | Current Version | Previous Version | Graphics & Text | Print | Product List | Glossary On
Versions: 1 2 3 4 5 6 7 8 9 10 11 12 13 14 15 16 17
185
FTUS41 KCLE 242328
TAFMFD
TAF
KMFD 242328Z 2500/2524 35008KT P6SM BKN080
     FM250200 36009KT P6SM SCT100
     FM250600 VRB03KT P6SM BKN030
     FM251400 36007KT P6SM BKN030
     FM251600 36008KT P6SM SCT035
     FM252000 02008KT P6SM FEW150=

USA.gov is the U.S. government's official web portal to all federal, state and local government web resources and services.